Meteo Giornale » Osservazioni meteo Stati Uniti (USA) » Carson City
ore: 04:10 - Osservazioni Meteo Carson City
Lat. 39° 11' N Lon. 119° 43' W Alt. 1435 metri s.l.m.
18 °C
Sereno
Temp. 24 Ore
10 °C
30 °C
Nord
5.5 Km/h
Dew point -2 °C
Umidità 25 %
Visibilità 10 Km
Il sole sorge alle ore 06:27
Il sole tramonta alle ore 19:29
| Data e Ora | Cielo e Fenomeni | T °C | DP °C | Um. % | Pres. hPa | Vis. km | Vento km/h | |
|---|---|---|---|---|---|---|---|---|
| Oggi h: 04:10 | Sereno | 18 | -2 | 25 | 1015 | 10 | N 5.5 | |
| Oggi h: 03:50 | Sereno | 18 | -3 | 23 | 1015 | 10 | S 7.4 | |
| Oggi h: 03:30 | Sereno | 16 | 1 | 36 | 1014 | 10 | N 0 | |
| Oggi h: 03:10 | Sereno | 17 | 1 | 33 | 1015 | 10 | N 0 | |
| Oggi h: 02:50 | Sereno | 17 | 0 | 31 | 1015 | 10 | N 0 | |
| Oggi h: 02:35 | Sereno | 17 | -1 | 29 | 1015 | 10 | N 0 | |
| Oggi h: 02:10 | Sereno | 17 | 0 | 31 | 1015 | 10 | N 0 | |
| Oggi h: 01:50 | Poco Nuvoloso | 17 | 1 | 33 | 1015 | 10 | N 0 | |
| Oggi h: 01:30 | Poco Nuvoloso | 17 | 2 | 36 | 1015 | 10 | N 0 | |
| Oggi h: 01:10 | Poco Nuvoloso | 18 | 0 | 29 | 1015 | 10 | N 0 | |
| Oggi h: 00:55 | Poco Nuvoloso | 19 | -1 | 25 | 1015 | 10 | S 7.4 | |
| Oggi h: 00:30 | Nuvoloso | 19 | -1 | 25 | 1015 | 10 | N 0 | |
| Oggi h: 00:10 | Poco Nuvoloso | 19 | 0 | 27 | 1015 | 10 | N 0 | |
| Ieri h: 23:55 | Nuvoloso | 18 | 3 | 36 | 1015 | 10 | N 0 | |
| Ieri h: 23:35 | Molto Nuvoloso | 19 | 3 | 34 | 1015 | 10 | N 0 | |
| Ieri h: 23:10 | Nuvoloso | 19 | 3 | 34 | 1015 | 10 | N 0 | |
| Ieri h: 22:55 | Poco Nuvoloso | 19 | 3 | 34 | 1015 | 10 | N 0 | |
| Ieri h: 22:35 | Sereno | 19 | 4 | 37 | 1015 | 10 | N 5.5 | |
| Ieri h: 22:10 | Sereno | 21 | 1 | 26 | 1015 | 10 | N 0 | |
| Ieri h: 21:50 | Nuvoloso | 21 | 2 | 28 | 1015 | 10 | N 5.5 | |
| Ieri h: 21:35 | Molto Nuvoloso | 22 | 2 | 26 | 0 | 10 | N 0 | |
| Ieri h: 21:15 | Nuvoloso | 22 | 3 | 28 | 1014 | 10 | N 9.3 | |
| Ieri h: 20:55 | Nuvoloso | 22 | 3 | 28 | 1014 | 10 | O 11.1 | |
| Ieri h: 20:35 | Coperto | 22 | 4 | 30 | 1014 | 10 | O 14.8 | |
| Ieri h: 20:10 | Coperto | 23 | 4 | 28 | 1014 | 10 | O 13 | |
| Ieri h: 19:55 | Molto Nuvoloso | 23 | 4 | 28 | 1014 | 10 | O 14.8 | |
| Ieri h: 19:35 | Poco Nuvoloso | 23 | 4 | 28 | 1014 | 10 | O 16.7 | |
| Ieri h: 19:10 | Molto Nuvoloso | 24 | 4 | 27 | 1014 | 10 | O 14.8 | |
| Ieri h: 18:50 | Poco Nuvoloso | 25 | 5 | 27 | 1013 | 10 | O 14.8 | |
| Ieri h: 18:35 | Sereno | 25 | 5 | 27 | 1013 | 10 | O 18.5 | |
| Ieri h: 18:10 | Sereno | 26 | 5 | 25 | 1013 | 10 | O/SO 14.8 | |
| Ieri h: 17:55 | Sereno | 27 | 4 | 22 | 1013 | 10 | O 18.5 | |
| Ieri h: 17:30 | Sereno | 27 | 4 | 22 | 1013 | 10 | O 16.7 | |
| Ieri h: 17:10 | Sereno | 28 | 4 | 21 | 1014 | 10 | O 22.2 | |
| Ieri h: 16:50 | Sereno | 28 | 4 | 21 | 1014 | 10 | O 20.3 | |
| Ieri h: 16:30 | Sereno | 28 | 3 | 20 | 1014 | 10 | O 24 | |
| Ieri h: 16:10 | Sereno | 29 | 2 | 17 | 1014 | 10 | O 27.8 | |
| Ieri h: 15:50 | Sereno | 29 | 1 | 16 | 1014 | 10 | O/SO 20.3 | |
| Ieri h: 15:30 | Sereno | 29 | 1 | 16 | 1014 | 10 | O 20.3 | |
| Ieri h: 15:10 | Sereno | 29 | 1 | 16 | 1014 | 10 | O/SO 14.8 | |
| Ieri h: 14:50 | Sereno | 29 | 0 | 15 | 1014 | 10 | O 16.7 | |
| Ieri h: 14:30 | Sereno | 30 | 1 | 15 | 1014 | 10 | O/SO 14.8 | |
| Ieri h: 14:10 | Sereno | 30 | -1 | 13 | 1014 | 14 | N 9.3 | |
| Ieri h: 13:50 | Sereno | 30 | -2 | 12 | 1015 | 14 | N 9.3 | |
| Ieri h: 13:35 | Sereno | 30 | -1 | 13 | 1015 | 14 | N 9.3 | |
| Ieri h: 13:10 | Sereno | 28 | -3 | 12 | 1015 | 10 | N 7.4 | |
| Ieri h: 12:50 | Sereno | 28 | -3 | 12 | 1015 | 11 | N 0 | |
| Ieri h: 12:30 | Sereno | 28 | -3 | 12 | 1016 | 14 | N 11.1 | |
| Ieri h: 12:15 | Sereno | 28 | -2 | 13 | 1016 | 10 | N 7.4 | |
| Ieri h: 11:50 | Sereno | 27 | 0 | 17 | 1016 | 10 | S/SE 7.4 | |
| Ieri h: 11:30 | Sereno | 26 | 2 | 20 | 1016 | 10 | N 0 | |
| Ieri h: 11:10 | Sereno | 25 | 4 | 25 | 1017 | 10 | N 0 | |
| Ieri h: 10:50 | Sereno | 24 | 4 | 27 | 1017 | 10 | N 0 | |
| Ieri h: 10:35 | Sereno | 24 | 4 | 27 | 1017 | 10 | N 0 | |
| Ieri h: 10:10 | Sereno | 22 | 5 | 32 | 1017 | 10 | N 0 | |
| Ieri h: 09:50 | Sereno | 21 | 5 | 35 | 1017 | 10 | N 0 | |
| Ieri h: 09:30 | Sereno | 20 | 5 | 37 | 1017 | 10 | N 0 | |
| Ieri h: 09:15 | Sereno | 19 | 4 | 37 | 1017 | 10 | N 0 | |
| Ieri h: 08:50 | Sereno | 18 | 5 | 42 | 1018 | 10 | N 0 | |
| Ieri h: 08:30 | Sereno | 16 | 5 | 47 | 1018 | 10 | N 0 | |
| Ieri h: 08:10 | Sereno | 15 | 5 | 51 | 1018 | 10 | N 0 | |
| Ieri h: 07:50 | Sereno | 14 | 5 | 54 | 1018 | 10 | N 0 | |
| Ieri h: 07:35 | Sereno | 13 | 5 | 58 | 1018 | 10 | N 0 | |
| Ieri h: 07:10 | Sereno | 11 | 5 | 66 | 1018 | 10 | N 0 | |
| Ieri h: 06:50 | Sereno | 10 | 5 | 71 | 1017 | 10 | N 0 | |
| Ieri h: 06:30 | Sereno | 10 | 5 | 71 | 1017 | 10 | N 0 | |
| Ieri h: 06:10 | Sereno | 10 | 5 | 71 | 1017 | 10 | N 0 | |
| Ieri h: 05:50 | Sereno | 10 | 5 | 71 | 1017 | 10 | N 0 | |
| Ieri h: 05:30 | Sereno | 11 | 4 | 61 | 1017 | 10 | N 0 | |
| Ieri h: 05:10 | Sereno | 11 | 5 | 66 | 1017 | 10 | N 0 | |
| Ieri h: 04:50 | Sereno | 12 | 5 | 62 | 1017 | 10 | N 0 | |



